Time;durP1;ratioP1;P1;durP2;ratioP2;P2;SDS_P1;SDS_P2;PMS_P1;PMS_P2;Temp;Humidity;BMP_temperature;BMP_pressure;BME280_temperature;BME280_humidity;BME280_pressure;Samples;Min_cycle;Max_cycle;Signal;HPM_P1;HPM_P2
2022/07/28 00:02:25;;;;;;;11.10;6.95;;;;;;;21.15;87.49;94908.72;5035703;28;20517;-72
2022/07/28 00:04:52;;;;;;;14.18;6.90;;;;;;;21.17;87.91;94914.50;5024405;28;20041;-72
2022/07/28 00:07:19;;;;;;;10.15;7.65;;;;;;;21.12;88.38;94914.63;5047008;28;20040;-72
2022/07/28 00:09:46;;;;;;;8.63;6.45;;;;;;;21.16;88.73;94912.94;5031830;28;20033;-71
2022/07/28 00:12:13;;;;;;;9.48;7.47;;;;;;;21.16;89.38;94918.25;5049292;28;20836;-73
2022/07/28 00:14:40;;;;;;;11.30;8.00;;;;;;;21.19;89.44;94912.38;5037517;28;20498;-73
2022/07/28 00:17:07;;;;;;;12.60;7.10;;;;;;;21.22;88.63;94905.69;5034335;28;20460;-72
2022/07/28 00:19:34;;;;;;;8.77;6.50;;;;;;;21.27;88.22;94896.88;5030843;28;20037;-73
2022/07/28 00:22:02;;;;;;;10.82;7.43;;;;;;;21.34;86.68;94908.63;5044399;28;20045;-72
2022/07/28 00:24:30;;;;;;;12.68;8.55;;;;;;;21.42;85.82;94909.78;5042118;28;20049;-71
2022/07/28 00:26:57;;;;;;;9.73;6.97;;;;;;;21.54;84.74;94912.72;5043436;28;20102;-71
2022/07/28 00:29:25;;;;;;;10.45;7.50;;;;;;;21.73;83.75;94922.38;5036792;28;20040;-72
2022/07/28 00:32:11;;;;;;;8.07;5.95;;;;;;;21.79;82.67;94926.50;5030259;28;20124;-72
2022/07/28 00:34:38;;;;;;;9.65;6.20;;;;;;;21.84;82.42;94918.44;5041233;28;20049;-72
2022/07/28 00:37:08;;;;;;;11.93;6.60;;;;;;;21.90;82.45;94919.09;5014227;28;20742;-72
2022/07/28 00:39:40;;;;;;;9.50;6.70;;;;;;;21.83;82.37;94908.13;5033459;28;20433;-72
2022/07/28 00:42:08;;;;;;;9.43;7.57;;;;;;;21.89;83.20;94918.31;5042636;28;20053;-72
2022/07/28 00:44:37;;;;;;;9.90;6.05;;;;;;;21.86;84.51;94918.94;5017756;28;20056;-72
2022/07/28 00:47:04;;;;;;;9.73;7.20;;;;;;;21.72;86.41;94923.50;5043703;28;20277;-72
2022/07/28 00:49:32;;;;;;;9.73;6.90;;;;;;;21.56;87.65;94915.84;5032629;28;20033;-72
2022/07/28 00:51:59;;;;;;;10.13;7.47;;;;;;;21.37;89.53;94912.53;5024716;28;20049;-71
2022/07/28 00:54:26;;;;;;;12.43;6.82;;;;;;;21.34;89.18;94913.91;5032319;28;20048;-71
2022/07/28 00:56:53;;;;;;;9.02;7.05;;;;;;;21.24;90.94;94902.75;5043420;28;20052;-72
2022/07/28 00:59:20;;;;;;;13.02;7.47;;;;;;;21.18;92.83;94888.81;5043949;28;20041;-72
2022/07/28 01:01:47;;;;;;;12.57;7.57;;;;;;;21.11;91.48;94883.16;5048056;28;20056;-72
2022/07/28 01:04:15;;;;;;;8.32;6.18;;;;;;;21.10;91.64;94869.09;5023622;28;20036;-71
2022/07/28 01:07:07;;;;;;;9.13;7.35;;;;;;;21.10;92.68;94866.44;5042071;28;20117;-71
2022/07/28 01:10:08;;;;;;;10.38;8.05;;;;;;;21.10;93.76;94861.16;5041972;28;20445;-71
2022/07/28 01:12:48;;;;;;;10.57;8.18;;;;;;;21.03;95.58;94850.22;5019761;28;20433;-71
2022/07/28 01:15:37;;;;;;;12.13;7.88;;;;;;;20.97;96.09;94841.56;5044708;28;20461;-73
2022/07/28 01:18:16;;;;;;;13.07;8.73;;;;;;;20.96;98.34;94807.47;5018693;28;20513;-72
2022/07/28 01:21:09;;;;;;;10.55;8.00;;;;;;;20.88;97.58;94810.81;5045635;28;20069;-72
2022/07/28 01:24:09;;;;;;;12.63;8.88;;;;;;;20.86;100.00;94839.44;5031143;28;20068;-72
2022/07/28 01:26:54;;;;;;;11.15;8.57;;;;;;;20.84;100.00;94860.13;5023883;28;20049;-73
2022/07/28 01:29:58;;;;;;;15.48;9.18;;;;;;;20.81;100.00;94843.75;5043609;28;20336;-73
2022/07/28 01:32:29;;;;;;;15.43;9.55;;;;;;;20.55;100.00;94834.72;5040844;28;20055;-73
2022/07/28 01:35:04;;;;;;;11.70;9.48;;;;;;;20.39;100.00;94842.13;5044647;28;20533;-72
2022/07/28 01:37:35;;;;;;;12.48;9.38;;;;;;;20.02;100.00;94860.50;5049569;28;20426;-73
2022/07/28 01:40:06;;;;;;;22.75;11.68;;;;;;;19.71;100.00;94859.34;5042318;28;20044;-72
2022/07/28 01:42:42;;;;;;;18.02;10.95;;;;;;;19.72;100.00;94866.22;5037933;28;20040;-72
2022/07/28 01:45:11;;;;;;;15.55;11.05;;;;;;;19.57;100.00;94865.38;5041381;28;20049;-72
2022/07/28 01:47:40;;;;;;;15.25;11.38;;;;;;;19.42;100.00;94868.22;5042399;28;20045;-71
2022/07/28 01:50:10;;;;;;;22.27;13.60;;;;;;;19.42;100.00;94863.72;5034011;28;20037;-72
2022/07/28 01:52:40;;;;;;;16.52;10.48;;;;;;;19.41;100.00;94856.06;5039546;28;20442;-72
2022/07/28 01:55:08;;;;;;;17.63;12.48;;;;;;;19.42;100.00;94847.09;5039687;28;20060;-72
2022/07/28 01:57:36;;;;;;;14.60;11.60;;;;;;;19.47;100.00;94854.94;5044538;28;20037;-72
2022/07/28 02:00:08;;;;;;;20.52;13.50;;;;;;;19.55;100.00;94856.16;5042349;28;20040;-72
2022/07/28 02:02:41;;;;;;;18.50;12.10;;;;;;;19.58;100.00;94853.72;5023483;28;20064;-72
2022/07/28 02:05:12;;;;;;;13.30;10.43;;;;;;;19.51;100.00;94850.66;5044780;28;20083;-72
2022/07/28 02:07:43;;;;;;;16.13;11.80;;;;;;;19.64;100.00;94859.72;5042664;28;20300;-72
2022/07/28 02:10:13;;;;;;;16.35;12.25;;;;;;;19.67;100.00;94865.22;5022776;28;20038;-73
2022/07/28 02:12:43;;;;;;;19.80;12.68;;;;;;;19.73;100.00;94867.78;5034402;28;20530;-72
2022/07/28 02:15:12;;;;;;;16.17;11.25;;;;;;;19.83;100.00;94863.16;5044201;28;20045;-72
2022/07/28 02:17:42;;;;;;;17.25;12.63;;;;;;;19.89;100.00;94855.91;5033589;28;20044;-71
2022/07/28 02:20:12;;;;;;;17.38;13.20;;;;;;;20.00;100.00;94867.91;5027216;28;20522;-71
2022/07/28 02:22:39;;;;;;;16.42;12.10;;;;;;;20.05;100.00;94870.47;5047213;28;20060;-72
2022/07/28 02:25:07;;;;;;;26.70;12.27;;;;;;;20.07;100.00;94879.97;5023298;28;20042;-72
2022/07/28 02:27:39;;;;;;;20.48;11.95;;;;;;;20.05;100.00;94881.03;5042913;28;20544;-73
2022/07/28 02:30:40;;;;;;;19.67;12.15;;;;;;;19.96;100.00;94887.28;5028211;28;20048;-72
2022/07/28 02:33:13;;;;;;;15.68;12.35;;;;;;;19.79;100.00;94898.34;5043928;28;20033;-73
2022/07/28 02:35:55;;;;;;;14.27;11.93;;;;;;;19.89;100.00;94892.94;5043131;28;20426;-72
2022/07/28 02:38:27;;;;;;;;;;;;;;;19.93;100.00;94904.47;5037537;28;20057;-72
2022/07/28 02:40:59;;;;;;;16.17;11.32;;;;;;;19.98;100.00;94901.00;5027201;28;19925;-73
2022/07/28 02:43:28;;;;;;;20.52;12.38;;;;;;;20.08;100.00;94910.59;5044218;28;20444;-72
2022/07/28 02:46:20;;;;;;;17.38;11.75;;;;;;;20.01;100.00;94884.56;5011838;28;20053;-72
2022/07/28 02:48:51;;;;;;;23.80;11.75;;;;;;;20.13;100.00;94899.94;5038968;28;20072;-72
2022/07/28 02:51:22;;;;;;;18.50;12.10;;;;;;;20.28;100.00;94915.59;5040040;28;20039;-72
2022/07/28 02:53:50;;;;;;;21.48;13.25;;;;;;;20.09;100.00;94917.47;5042258;28;20045;-72
2022/07/28 02:56:18;;;;;;;15.35;12.23;;;;;;;19.91;100.00;94911.91;5040888;28;20036;-71
2022/07/28 02:58:46;;;;;;;26.75;14.82;;;;;;;19.77;100.00;94913.72;5038772;28;20125;-72
2022/07/28 03:01:21;;;;;;;21.70;14.90;;;;;;;19.73;100.00;94920.63;5040441;28;20032;-72
2022/07/28 03:03:49;;;;;;;18.10;13.88;;;;;;;19.76;100.00;94928.03;5020010;28;20537;-72
2022/07/28 03:06:22;;;;;;;18.83;14.10;;;;;;;19.74;100.00;94924.88;5024732;28;20947;-71
2022/07/28 03:08:55;;;;;;;21.17;13.93;;;;;;;19.66;100.00;94921.78;5041194;28;20052;-72
2022/07/28 03:11:22;;;;;;;18.30;13.75;;;;;;;19.58;100.00;94925.06;5038561;28;20048;-73
2022/07/28 03:13:49;;;;;;;20.20;14.55;;;;;;;19.50;100.00;94928.34;5032284;28;20401;-72
2022/07/28 03:16:16;;;;;;;19.15;14.10;;;;;;;19.47;100.00;94928.91;5032191;28;20080;-72
2022/07/28 03:18:43;;;;;;;19.58;13.93;;;;;;;19.44;100.00;94918.91;5032833;28;20037;-73
2022/07/28 03:21:10;;;;;;;21.00;13.60;;;;;;;19.51;100.00;94935.19;5018315;28;20044;-71
2022/07/28 03:23:42;;;;;;;18.30;13.15;;;;;;;19.50;100.00;94936.28;5034480;28;20068;-72
2022/07/28 03:26:20;;;;;;;15.90;12.43;;;;;;;19.48;100.00;94935.75;5022201;28;20037;-72
2022/07/28 03:28:51;;;;;;;16.75;12.98;;;;;;;19.56;100.00;94935.13;5027160;28;20051;-71
2022/07/28 03:31:19;;;;;;;17.88;13.18;;;;;;;19.61;100.00;94935.06;5036164;28;20051;-72
2022/07/28 03:33:47;;;;;;;18.83;13.02;;;;;;;19.76;100.00;94943.88;5024445;28;20425;-72
2022/07/28 03:36:17;;;;;;;15.50;12.43;;;;;;;19.85;100.00;94944.78;5027561;28;20052;-73
2022/07/28 03:38:52;;;;;;;17.00;13.13;;;;;;;19.90;100.00;94931.50;5035255;28;20045;-73
2022/07/28 03:41:21;;;;;;;16.08;12.35;;;;;;;19.93;100.00;94924.84;5042710;28;20036;-73
2022/07/28 03:43:49;;;;;;;18.50;12.63;;;;;;;19.97;100.00;94925.84;5010582;28;20050;-73
2022/07/28 03:46:16;;;;;;;17.98;13.07;;;;;;;19.93;100.00;94920.34;5029107;28;20838;-72
2022/07/28 03:48:43;;;;;;;18.60;13.30;;;;;;;19.97;100.00;94921.34;5033216;28;20049;-72
2022/07/28 03:51:10;;;;;;;24.45;13.90;;;;;;;20.01;100.00;94922.34;5034819;28;20554;-71
2022/07/28 03:53:38;;;;;;;18.40;14.45;;;;;;;20.05;100.00;94918.03;5018892;28;20056;-71
2022/07/28 03:56:05;;;;;;;19.10;14.38;;;;;;;20.04;100.00;94916.50;5008685;28;20045;-72
2022/07/28 03:58:32;;;;;;;21.58;14.30;;;;;;;20.04;100.00;94908.56;5021534;28;20044;-72
2022/07/28 04:00:59;;;;;;;18.92;14.80;;;;;;;20.05;100.00;94901.41;5036074;28;20036;-72
2022/07/28 04:03:26;;;;;;;23.83;14.63;;;;;;;20.05;100.00;94901.41;5012835;28;20064;-71
2022/07/28 04:06:09;;;;;;;23.73;16.13;;;;;;;20.02;100.00;94889.56;5042704;28;20044;-72
2022/07/28 04:08:36;;;;;;;23.30;15.32;;;;;;;20.01;100.00;94895.91;5029390;28;20052;-72
2022/07/28 04:11:03;;;;;;;23.27;16.35;;;;;;;20.04;100.00;94905.91;5026982;28;20037;-71
2022/07/28 04:13:35;;;;;;;20.48;15.60;;;;;;;19.95;100.00;94902.38;5032789;28;20082;-71
2022/07/28 04:16:02;;;;;;;22.40;15.82;;;;;;;19.96;100.00;94897.84;5024152;28;20073;-73
2022/07/28 04:18:29;;;;;;;20.95;14.52;;;;;;;19.97;100.00;94889.63;5036840;28;20040;-72
2022/07/28 04:20:57;;;;;;;21.73;16.13;;;;;;;19.92;100.00;94892.34;5019265;28;20118;-72
2022/07/28 04:23:24;;;;;;;23.15;17.35;;;;;;;19.91;100.00;94906.63;5039517;28;20615;-72
2022/07/28 04:25:51;;;;;;;22.92;17.25;;;;;;;19.81;100.00;94885.66;5016942;28;20044;-72
2022/07/28 04:28:18;;;;;;;25.25;17.85;;;;;;;19.86;100.00;94904.06;5033826;28;20035;-72
2022/07/28 04:30:45;;;;;;;27.92;19.42;;;;;;;19.88;100.00;94901.13;5025898;28;20056;-71
2022/07/28 04:33:12;;;;;;;23.70;17.75;;;;;;;19.80;100.00;94894.66;5036792;28;20081;-71
2022/07/28 04:35:39;;;;;;;25.05;16.98;;;;;;;19.92;100.00;94892.34;5038601;28;20059;-72
2022/07/28 04:38:06;;;;;;;24.95;17.95;;;;;;;19.91;100.00;94890.78;5036348;28;20045;-70
2022/07/28 04:40:33;;;;;;;21.85;16.20;;;;;;;19.97;100.00;94887.00;5025357;28;20457;-72
2022/07/28 04:43:02;;;;;;;24.50;16.35;;;;;;;19.91;100.00;94880.19;5040093;28;20520;-72
2022/07/28 04:45:29;;;;;;;22.70;16.88;;;;;;;19.91;100.00;94885.50;5034741;28;20045;-72
2022/07/28 04:47:56;;;;;;;23.30;18.63;;;;;;;19.75;100.00;94882.28;5027642;28;20042;-73
2022/07/28 04:50:23;;;;;;;25.35;16.52;;;;;;;19.69;100.00;94878.13;5029677;28;20030;-72
2022/07/28 04:52:57;;;;;;;21.50;16.30;;;;;;;19.74;100.00;94895.81;5021079;28;20132;-72
2022/07/28 04:55:25;;;;;;;21.13;15.98;;;;;;;19.73;100.00;94886.28;5042746;28;20060;-72
2022/07/28 04:57:51;;;;;;;22.80;16.02;;;;;;;19.73;100.00;94894.19;5038280;28;20134;-72
2022/07/28 05:00:20;;;;;;;19.25;14.07;;;;;;;19.72;100.00;94892.66;5024228;28;20041;-72
2022/07/28 05:02:50;;;;;;;22.40;14.40;;;;;;;19.71;100.00;94906.91;5034339;28;20049;-73
2022/07/28 05:05:17;;;;;;;20.88;14.10;;;;;;;19.76;100.00;94910.28;5044583;28;20048;-73
2022/07/28 05:07:44;;;;;;;17.08;13.35;;;;;;;19.78;100.00;94912.66;5032568;28;20542;-72
2022/07/28 05:10:11;;;;;;;17.10;13.68;;;;;;;19.79;100.00;94914.22;5032179;28;20048;-72
2022/07/28 05:12:38;;;;;;;19.95;14.48;;;;;;;19.80;100.00;94905.22;5030624;28;20528;-74
2022/07/28 05:15:06;;;;;;;21.70;15.15;;;;;;;19.89;100.00;94914.06;5031060;28;20041;-74
2022/07/28 05:17:34;;;;;;;30.20;15.10;;;;;;;19.83;100.00;94909.94;5019487;28;20982;-74
2022/07/28 05:20:01;;;;;;;19.60;13.80;;;;;;;19.86;100.00;94901.41;5034741;28;20061;-74
2022/07/28 05:22:44;;;;;;;21.63;13.48;;;;;;;19.94;100.00;94889.44;5045924;28;20052;-72
2022/07/28 05:25:18;;;;;;;18.70;13.27;;;;;;;19.89;100.00;94892.94;5043402;28;20082;-73
2022/07/28 05:27:46;;;;;;;21.70;13.90;;;;;;;19.84;100.00;94895.63;5027044;28;20349;-73
2022/07/28 05:30:14;;;;;;;24.48;14.20;;;;;;;19.86;100.00;94885.56;5045837;28;20120;-72
2022/07/28 05:32:44;;;;;;;20.13;12.90;;;;;;;19.91;100.00;94864.34;5036794;28;20064;-72
2022/07/28 05:35:11;;;;;;;19.42;14.48;;;;;;;19.88;100.00;94837.72;5043308;28;20136;-73
2022/07/28 05:37:38;;;;;;;23.63;12.98;;;;;;;19.99;100.00;94847.06;5035633;28;20430;-72
2022/07/28 05:40:12;;;;;;;24.63;13.95;;;;;;;19.91;100.00;94848.50;5034084;28;20442;-72
2022/07/28 05:42:41;;;;;;;17.65;12.57;;;;;;;19.93;100.00;94841.06;5035839;28;20053;-72
2022/07/28 05:45:10;;;;;;;18.25;11.98;;;;;;;19.93;100.00;94850.84;5027689;28;20138;-72
2022/07/28 05:47:51;;;;;;;16.77;12.43;;;;;;;19.98;100.00;94859.47;5028627;28;20415;-73
2022/07/28 05:50:20;;;;;;;23.00;12.10;;;;;;;20.07;100.00;94882.63;5043152;28;20041;-73
2022/07/28 05:52:47;;;;;;;17.02;10.90;;;;;;;20.10;100.00;94888.13;5027147;28;20048;-72
2022/07/28 05:55:15;;;;;;;15.10;11.43;;;;;;;20.10;100.00;94892.63;5016382;28;20041;-72
2022/07/28 05:57:42;;;;;;;16.13;11.70;;;;;;;20.06;100.00;94908.28;5028524;28;20049;-73
2022/07/28 06:00:15;;;;;;;15.20;11.27;;;;;;;19.71;100.00;94899.00;5024125;28;20144;-72
2022/07/28 06:02:44;;;;;;;17.75;11.50;;;;;;;19.78;100.00;94907.38;5036018;28;20299;-72
2022/07/28 06:05:12;;;;;;;18.35;13.02;;;;;;;19.84;100.00;94916.78;5041098;28;20036;-72
2022/07/28 06:07:39;;;;;;;19.98;13.93;;;;;;;19.78;100.00;94915.31;5040117;28;20037;-73
2022/07/28 06:10:11;;;;;;;20.40;12.73;;;;;;;19.85;100.00;94907.78;5015207;28;20132;-72
2022/07/28 06:12:43;;;;;;;22.30;15.50;;;;;;;19.85;100.00;94889.28;5041298;28;20155;-73
2022/07/28 06:15:15;;;;;;;22.65;16.67;;;;;;;19.99;100.00;94908.63;5022116;28;20045;-72
2022/07/28 06:17:44;;;;;;;20.17;14.63;;;;;;;20.10;100.00;94911.13;5033955;28;20045;-73
2022/07/28 06:20:12;;;;;;;22.35;15.63;;;;;;;20.27;100.00;94907.94;5036335;28;20044;-73
2022/07/28 06:22:44;;;;;;;20.90;15.40;;;;;;;20.35;100.00;94905.41;5041570;28;20133;-73
2022/07/28 06:25:15;;;;;;;22.42;15.85;;;;;;;20.63;100.00;94900.19;5042834;28;20372;-72
2022/07/28 06:27:46;;;;;;;21.80;16.63;;;;;;;20.91;100.00;94894.94;5022700;28;20056;-72
2022/07/28 06:30:13;;;;;;;20.95;15.98;;;;;;;21.18;100.00;94900.19;5045637;28;20559;-72
2022/07/28 06:32:41;;;;;;;20.65;13.80;;;;;;;21.52;100.00;94908.81;5039065;28;20076;-72
2022/07/28 06:35:08;;;;;;;15.70;13.13;;;;;;;21.80;100.00;94904.19;5041761;28;20044;-69
2022/07/28 06:37:35;;;;;;;19.35;12.90;;;;;;;22.08;100.00;94898.81;5046160;28;20140;-70
2022/07/28 06:40:02;;;;;;;14.70;12.02;;;;;;;22.23;100.00;94889.69;5042979;28;20049;-70
2022/07/28 06:42:29;;;;;;;16.65;13.45;;;;;;;22.31;100.00;94884.47;5040105;28;20057;-70
2022/07/28 06:44:56;;;;;;;15.88;12.00;;;;;;;22.57;100.00;94894.41;5022233;28;20411;-70
2022/07/28 06:47:25;;;;;;;18.67;12.10;;;;;;;22.84;100.00;94903.28;5029496;28;20041;-70
2022/07/28 06:49:52;;;;;;;15.35;12.35;;;;;;;22.96;100.00;94873.47;5032806;28;20541;-70
2022/07/28 06:52:20;;;;;;;14.60;12.02;;;;;;;23.32;100.00;94891.88;5039486;28;20041;-70
2022/07/28 06:54:51;;;;;;;18.35;12.52;;;;;;;23.47;100.00;94906.59;5027549;28;21097;-70
2022/07/28 06:57:24;;;;;;;16.02;11.98;;;;;;;23.25;100.00;94907.50;5028038;28;20511;-71
2022/07/28 07:00:03;;;;;;;17.58;12.70;;;;;;;23.40;100.00;94908.94;5036020;28;20102;-69
2022/07/28 07:02:30;;;;;;;13.63;11.05;;;;;;;23.65;100.00;94910.06;5038608;28;20140;-71
2022/07/28 07:04:57;;;;;;;15.48;12.65;;;;;;;23.67;100.00;94907.88;5033243;28;20060;-71
2022/07/28 07:07:25;;;;;;;17.35;12.88;;;;;;;23.69;100.00;94895.03;5037730;28;20045;-71
2022/07/28 07:09:52;;;;;;;17.70;12.30;;;;;;;23.95;100.00;94918.22;5044670;28;20116;-71
2022/07/28 07:12:18;;;;;;;15.13;12.30;;;;;;;23.87;100.00;94921.69;5039400;28;20037;-71
2022/07/28 07:14:45;;;;;;;17.13;12.82;;;;;;;23.91;100.00;94917.28;5035470;28;20040;-71
2022/07/28 07:17:12;;;;;;;16.33;12.40;;;;;;;24.08;98.56;94927.16;5024948;28;20037;-71
2022/07/28 07:19:39;;;;;;;15.80;13.07;;;;;;;24.33;100.00;94938.88;5040227;28;20036;-73
2022/07/28 07:22:06;;;;;;;16.42;12.95;;;;;;;24.43;98.44;94943.84;5044863;28;20076;-71
2022/07/28 07:24:34;;;;;;;17.42;13.30;;;;;;;24.68;97.84;94949.47;5030436;28;20121;-72
2022/07/28 07:27:01;;;;;;;17.13;12.60;;;;;;;24.92;96.51;94954.22;5039918;28;20569;-66
2022/07/28 07:29:27;;;;;;;16.60;12.07;;;;;;;24.48;98.57;94946.34;5040890;28;20044;-69
2022/07/28 07:31:57;;;;;;;18.60;13.25;;;;;;;24.52;98.50;94941.94;5044319;28;20214;-66
2022/07/28 07:34:24;;;;;;;19.63;14.45;;;;;;;24.91;99.89;94937.47;5040428;28;20460;-66
2022/07/28 07:36:51;;;;;;;16.13;13.05;;;;;;;25.21;97.79;94944.72;5035829;28;20057;-66
2022/07/28 07:39:18;;;;;;;14.57;12.88;;;;;;;24.80;97.06;94946.91;5022357;28;20581;-65
2022/07/28 07:41:45;;;;;;;18.95;14.90;;;;;;;24.63;98.26;94952.28;5042994;28;20269;-71
2022/07/28 07:44:11;;;;;;;19.63;14.57;;;;;;;24.21;98.05;94926.97;5039299;28;20075;-68
2022/07/28 07:46:39;;;;;;;17.92;13.30;;;;;;;24.52;100.00;94947.25;5038563;28;20111;-67
2022/07/28 07:49:06;;;;;;;21.75;14.00;;;;;;;24.75;98.99;94955.09;5037511;28;20365;-71
2022/07/28 07:51:33;;;;;;;19.08;13.55;;;;;;;25.02;98.09;94958.44;5041807;28;20456;-70
2022/07/28 07:54:00;;;;;;;22.55;13.77;;;;;;;25.23;94.48;94959.28;5023039;28;20044;-71
2022/07/28 07:56:27;;;;;;;16.90;14.38;;;;;;;25.27;91.21;94954.91;5039775;28;20132;-72
2022/07/28 07:58:54;;;;;;;17.33;13.95;;;;;;;25.32;92.05;94961.94;5042201;28;20055;-71
2022/07/28 08:01:23;;;;;;;18.95;13.73;;;;;;;25.21;93.46;94972.16;5036403;28;20096;-72
2022/07/28 08:03:50;;;;;;;17.98;13.82;;;;;;;25.01;94.38;94978.97;5037755;28;20527;-72
2022/07/28 08:06:19;;;;;;;19.25;15.13;;;;;;;24.89;95.00;94982.31;5040221;28;20041;-72
2022/07/28 08:08:53;;;;;;;20.63;14.47;;;;;;;24.89;96.20;94979.63;5035266;28;20051;-72
2022/07/28 08:11:20;;;;;;;20.50;14.75;;;;;;;25.08;96.30;94981.13;5042086;28;20033;-72
2022/07/28 08:13:47;;;;;;;18.85;14.77;;;;;;;24.74;95.40;94958.84;5044816;28;20361;-72
2022/07/28 08:16:14;;;;;;;17.83;14.57;;;;;;;24.86;96.01;94988.25;5046071;28;20116;-72
2022/07/28 08:18:42;;;;;;;18.17;14.68;;;;;;;24.95;95.27;94978.34;5038737;28;20537;-72
2022/07/28 08:21:11;;;;;;;17.98;14.85;;;;;;;25.04;95.01;94991.66;5039555;28;20041;-72
2022/07/28 08:23:39;;;;;;;18.38;14.70;;;;;;;24.87;95.96;95000.50;5027668;28;20437;-73
2022/07/28 08:26:06;;;;;;;19.45;14.82;;;;;;;24.69;97.48;95009.63;5010440;28;20042;-76
2022/07/28 08:28:33;;;;;;;19.10;14.63;;;;;;;24.89;94.06;95008.16;4999688;28;20041;-76
2022/07/28 08:31:01;;;;;;;19.17;14.45;;;;;;;24.98;94.76;95022.25;5001384;28;20056;-69
2022/07/28 08:33:29;;;;;;;21.88;13.35;;;;;;;25.10;93.68;95000.25;5023994;28;20049;-69
2022/07/28 08:35:55;;;;;;;18.48;13.80;;;;;;;25.07;92.46;95014.22;5002860;28;20055;-72
2022/07/28 08:38:23;;;;;;;17.67;13.57;;;;;;;25.03;91.40;95010.63;5017231;28;20037;-72
2022/07/28 08:40:52;;;;;;;18.23;14.23;;;;;;;25.27;91.68;95018.88;5022101;28;20331;-72
2022/07/28 08:43:34;;;;;;;18.17;13.32;;;;;;;25.65;90.74;95012.72;5021437;28;20052;-76
2022/07/28 08:46:03;;;;;;;24.60;13.40;;;;;;;25.78;87.97;95012.81;5005879;28;20374;-75
2022/07/28 08:48:33;;;;;;;24.30;14.63;;;;;;;25.53;89.32;95004.63;5026591;28;20048;-75
2022/07/28 08:51:09;;;;;;;19.60;14.00;;;;;;;25.50;90.58;95021.28;5020759;28;20129;-75
2022/07/28 08:53:38;;;;;;;17.35;13.00;;;;;;;25.37;90.17;95018.53;5020758;28;20464;-75
2022/07/28 08:56:07;;;;;;;25.98;12.70;;;;;;;25.31;91.00;95019.78;5011251;28;20053;-71
2022/07/28 08:58:36;;;;;;;19.23;14.07;;;;;;;25.28;91.64;95004.47;5024361;28;20049;-71
2022/07/28 09:01:07;;;;;;;17.88;13.43;;;;;;;25.56;91.54;95015.44;5020831;28;20049;-72
2022/07/28 09:03:35;;;;;;;23.52;14.18;;;;;;;25.64;94.48;95027.19;5022731;28;20033;-73
2022/07/28 09:06:03;;;;;;;16.35;12.60;;;;;;;25.58;90.08;95023.13;5024014;28;20041;-73
2022/07/28 09:08:30;;;;;;;18.35;13.13;;;;;;;25.37;88.89;95020.38;5024318;28;20041;-74
2022/07/28 09:10:57;;;;;;;14.65;11.90;;;;;;;25.22;91.63;95000.34;5010792;28;20049;-74
2022/07/28 09:13:24;;;;;;;20.05;12.63;;;;;;;25.38;92.41;95001.41;5020653;28;20077;-74
2022/07/28 09:15:52;;;;;;;16.25;12.65;;;;;;;25.57;91.38;95010.91;5000431;28;20206;-75
2022/07/28 09:18:20;;;;;;;15.90;13.48;;;;;;;25.69;90.56;95016.31;5005459;28;20545;-74
2022/07/28 09:20:47;;;;;;;18.08;14.10;;;;;;;25.70;93.56;95004.53;5029957;28;20057;-74
2022/07/28 09:23:14;;;;;;;21.05;14.30;;;;;;;25.79;93.31;95001.84;5036630;28;20059;-74
2022/07/28 09:26:08;;;;;;;22.45;14.02;;;;;;;25.89;96.71;94990.00;5014527;28;20038;-74
2022/07/28 09:28:53;;;;;;;19.83;15.65;;;;;;;26.04;96.10;95008.13;5036629;28;20049;-74
2022/07/28 09:31:22;;;;;;;21.45;15.45;;;;;;;26.08;93.65;95009.03;5031493;28;20142;-74
2022/07/28 09:33:55;;;;;;;21.80;14.95;;;;;;;26.41;97.59;95016.31;5037594;28;20182;-74
2022/07/28 09:36:22;;;;;;;18.08;14.60;;;;;;;26.63;98.94;95004.53;5021195;28;20060;-71
2022/07/28 09:38:49;;;;;;;17.05;14.45;;;;;;;26.81;96.34;94999.81;5035555;28;20433;-71
2022/07/28 09:41:22;;;;;;;18.42;14.60;;;;;;;27.06;93.14;94997.16;5039033;28;20131;-70
2022/07/28 09:43:51;;;;;;;16.27;13.40;;;;;;;27.12;88.15;94995.84;5021347;28;20427;-70
2022/07/28 09:46:24;;;;;;;16.58;12.90;;;;;;;27.34;88.75;94996.56;5021431;28;20048;-70
2022/07/28 09:48:58;;;;;;;21.27;15.20;;;;;;;27.13;85.07;94999.28;5038758;28;20500;-71
2022/07/28 09:51:30;;;;;;;16.63;14.32;;;;;;;26.95;85.95;95001.38;5007906;28;20770;-72
2022/07/28 09:54:17;;;;;;;19.05;13.10;;;;;;;26.64;86.55;94998.06;5034875;28;20474;-70
2022/07/28 09:56:45;;;;;;;16.15;13.05;;;;;;;26.43;87.63;94987.38;5020900;28;20049;-70
2022/07/28 09:59:12;;;;;;;17.38;13.07;;;;;;;26.68;87.52;94982.16;5034612;28;20843;-70
2022/07/28 10:01:57;;;;;;;17.50;13.18;;;;;;;26.82;88.65;94982.66;5035967;28;20755;-70
2022/07/28 10:04:29;;;;;;;16.25;13.30;;;;;;;26.81;84.08;94991.78;5039249;28;20104;-71
2022/07/28 10:07:16;;;;;;;19.55;14.32;;;;;;;26.84;85.47;95001.78;5036259;28;20045;-71
2022/07/28 10:09:58;;;;;;;16.10;13.93;;;;;;;27.08;85.70;94994.94;5040787;28;20045;-70
2022/07/28 10:12:29;;;;;;;19.67;15.93;;;;;;;27.11;85.31;95010.31;5043823;28;20045;-70
2022/07/28 10:18:00;;;;;;;18.57;14.53;;;;;;;27.54;81.59;95013.59;5040824;28;20048;-70
2022/07/28 10:20:27;;;;;;;18.65;14.23;;;;;;;27.42;79.35;95014.38;5038904;28;20455;-70
2022/07/28 10:23:00;;;;;;;16.27;13.25;;;;;;;27.71;77.03;95015.25;5039748;28;20869;-70
2022/07/28 10:25:30;;;;;;;16.63;14.10;;;;;;;28.23;73.94;94998.47;5038812;28;20076;-70
2022/07/28 10:28:02;;;;;;;16.38;11.82;;;;;;;29.07;68.76;95005.69;5044056;28;20537;-70
2022/07/28 10:30:33;;;;;;;19.67;11.90;;;;;;;29.62;69.24;95000.50;5037514;28;20048;-70
2022/07/28 10:33:07;;;;;;;13.50;11.57;;;;;;;29.64;62.97;95010.88;5034888;28;20040;-71
2022/07/28 10:35:36;;;;;;;12.52;9.98;;;;;;;29.45;59.35;95012.38;5037975;28;20107;-71
2022/07/28 10:38:24;;;;;;;15.90;12.15;;;;;;;29.23;63.26;95005.72;5041229;28;20057;-71
2022/07/28 10:40:53;;;;;;;15.43;12.85;;;;;;;29.83;62.25;95010.97;5042955;28;20452;-71
2022/07/28 10:43:20;;;;;;;12.50;9.82;;;;;;;30.40;61.94;95008.72;5044039;28;20045;-71
2022/07/28 10:45:48;;;;;;;10.82;9.73;;;;;;;30.98;52.87;94991.75;5036603;28;20057;-70
2022/07/28 10:48:37;;;;;;;14.30;10.77;;;;;;;31.69;51.63;94996.75;5044815;28;20045;-71
2022/07/28 10:51:04;;;;;;;11.68;10.45;;;;;;;31.53;48.76;95004.19;5025137;28;20516;-71
2022/07/28 10:54:01;;;;;;;10.52;8.52;;;;;;;31.42;49.04;94988.66;5039556;28;20047;-71
2022/07/28 10:56:50;;;;;;;10.50;9.40;;;;;;;31.72;49.34;94989.88;5036270;28;20441;-76
2022/07/28 10:59:35;;;;;;;15.63;9.02;;;;;;;31.23;47.13;94986.03;5033715;28;20154;-76
2022/07/28 11:02:02;;;;;;;10.45;8.85;;;;;;;31.74;47.57;94993.75;5035474;28;20045;-76
2022/07/28 11:04:47;;;;;;;9.65;8.15;;;;;;;32.13;45.10;94990.84;5042966;28;20126;-69
2022/07/28 11:07:17;;;;;;;13.02;8.90;;;;;;;32.38;46.66;94982.28;5041195;28;20353;-74
2022/07/28 11:09:48;;;;;;;13.45;9.73;;;;;;;32.88;43.03;94993.63;5031048;28;20055;-70
2022/07/28 11:12:45;;;;;;;9.65;8.65;;;;;;;33.47;43.25;94979.47;5040725;28;20037;-72
2022/07/28 11:15:32;;;;;;;10.35;8.73;;;;;;;33.76;40.29;94979.69;5040765;28;20048;-69
2022/07/28 11:18:08;;;;;;;14.77;9.25;;;;;;;33.23;40.27;94970.84;5038771;28;20522;-70
2022/07/28 11:20:50;;;;;;;12.98;10.82;;;;;;;33.05;42.77;94965.25;5042839;28;20078;-70
2022/07/28 11:23:35;;;;;;;10.70;9.27;;;;;;;32.74;42.20;94961.13;5042628;28;20518;-70
2022/07/28 11:26:21;;;;;;;13.63;9.82;;;;;;;32.88;42.36;94961.28;5042753;28;20044;-71
2022/07/28 11:29:03;;;;;;;12.88;11.35;;;;;;;33.68;41.61;94947.25;5036588;28;20537;-70
2022/07/28 11:31:45;;;;;;;10.63;9.52;;;;;;;34.24;39.83;94955.28;5048489;28;20041;-70
2022/07/28 11:34:20;;;;;;;10.13;8.68;;;;;;;34.35;38.83;94955.31;5029969;28;20056;-71
2022/07/28 11:37:08;;;;;;;10.32;8.77;;;;;;;34.04;38.56;94947.44;5041444;28;20056;-72
2022/07/28 11:39:44;;;;;;;;;;;;;;;33.72;39.65;94956.16;5040014;28;20041;-69